Time,TemperatureF,DewpointF,PressureIn,WindDirection,WindDirectionDegrees,WindSpeedMPH,WindSpeedGustMPH,Humidity,HourlyPrecipIn,Conditions,Clouds,dailyrainin,SoftwareType,DateUTC
2013-08-10 00:10:00,74.9,73.0,30.07,ENE,67,0.0,-999.0,95,-99.99,,,0.12,weatherlink.com 1.10,2013-08-10 04:10:00,
2013-08-10 00:25:00,74.9,74.0,30.07,East,91,2.0,-999.0,96,-99.99,,,0.12,weatherlink.com 1.10,2013-08-10 04:25:00,
2013-08-10 00:40:00,74.9,74.0,30.07,East,84,0.0,-999.0,96,-99.99,,,0.12,weatherlink.com 1.10,2013-08-10 04:40:00,
2013-08-10 00:55:00,74.8,74.0,30.07,East,84,0.0,-999.0,96,-99.99,,,0.12,weatherlink.com 1.10,2013-08-10 04:55:00,
2013-08-10 01:10:00,74.8,74.0,30.07,East,88,0.0,-999.0,96,-99.99,,,0.12,weatherlink.com 1.10,2013-08-10 05:10:00,
2013-08-10 01:25:00,74.7,74.0,30.07,ENE,75,4.0,-999.0,96,-99.99,,,0.12,weatherlink.com 1.10,2013-08-10 05:25:00,
2013-08-10 01:40:00,74.6,73.0,30.07,ESE,106,0.0,-999.0,96,-99.99,,,0.12,weatherlink.com 1.10,2013-08-10 05:40:00,
2013-08-10 01:55:00,74.6,73.0,30.07,East,101,0.0,-999.0,96,-99.99,,,0.12,weatherlink.com 1.10,2013-08-10 05:55:00,
2013-08-10 02:10:00,74.5,73.0,30.07,East,101,0.0,-999.0,96,-99.99,,,0.12,weatherlink.com 1.10,2013-08-10 06:10:00,
2013-08-10 02:26:00,74.4,73.0,30.07,East,101,0.0,-999.0,96,-99.99,,,0.12,weatherlink.com 1.10,2013-08-10 06:26:00,
2013-08-10 02:41:00,74.4,73.0,30.06,East,101,0.0,-999.0,96,-99.99,,,0.12,weatherlink.com 1.10,2013-08-10 06:41:00,
2013-08-10 02:56:00,74.6,73.0,30.05,East,96,0.0,-999.0,95,-99.99,,,0.12,weatherlink.com 1.10,2013-08-10 06:56:00,
2013-08-10 03:11:00,74.6,73.0,30.05,East,100,0.0,-999.0,95,-99.99,,,0.12,weatherlink.com 1.10,2013-08-10 07:11:00,
2013-08-10 03:26:00,74.6,73.0,30.05,East,100,0.0,-999.0,95,-99.99,,,0.12,weatherlink.com 1.10,2013-08-10 07:26:00,
2013-08-10 03:41:00,74.6,73.0,30.05,East,100,0.0,-999.0,95,-99.99,,,0.12,weatherlink.com 1.10,2013-08-10 07:41:00,
2013-08-10 03:56:00,74.6,73.0,30.05,East,100,0.0,-999.0,95,-99.99,,,0.12,weatherlink.com 1.10,2013-08-10 07:56:00,
2013-08-10 04:11:00,74.5,73.0,30.05,East,100,0.0,-999.0,95,-99.99,,,0.12,weatherlink.com 1.10,2013-08-10 08:11:00,
2013-08-10 04:26:00,74.4,73.0,30.05,East,100,0.0,-999.0,95,-99.99,,,0.12,weatherlink.com 1.10,2013-08-10 08:26:00,
2013-08-10 04:41:00,74.5,73.0,30.05,East,100,0.0,-999.0,96,-99.99,,,0.12,weatherlink.com 1.10,2013-08-10 08:41:00,
2013-08-10 04:56:00,74.4,73.0,30.05,East,100,0.0,-999.0,96,-99.99,,,0.12,weatherlink.com 1.10,2013-08-10 08:56:00,
2013-08-10 05:11:00,74.4,74.0,30.05,East,100,0.0,-999.0,97,-99.99,,,0.12,weatherlink.com 1.10,2013-08-10 09:11:00,
2013-08-10 05:26:00,74.2,73.0,30.05,East,99,0.0,-999.0,96,-99.99,,,0.12,weatherlink.com 1.10,2013-08-10 09:26:00,
2013-08-10 05:41:00,74.2,73.0,30.04,East,83,3.0,-999.0,96,-99.99,,,0.12,weatherlink.com 1.10,2013-08-10 09:41:00,
2013-08-10 05:56:00,74.4,74.0,30.05,ENE,76,5.0,-999.0,97,-99.99,,,0.12,weatherlink.com 1.10,2013-08-10 09:56:00,
2013-08-10 06:11:00,74.5,74.0,30.05,East,87,3.0,-999.0,97,-99.99,,,0.12,weatherlink.com 1.10,2013-08-10 10:11:00,
2013-08-10 06:26:00,74.6,74.0,30.06,ENE,77,0.0,-999.0,97,-99.99,,,0.12,weatherlink.com 1.10,2013-08-10 10:26:00,
2013-08-10 06:41:00,74.6,74.0,30.06,ENE,75,1.0,-999.0,97,-99.99,,,0.12,weatherlink.com 1.10,2013-08-10 10:41:00,
2013-08-10 06:56:00,74.7,74.0,30.07,East,80,4.0,-999.0,97,-99.99,,,0.12,weatherlink.com 1.10,2013-08-10 10:56:00,
2013-08-10 07:11:00,74.8,74.0,30.07,ENE,76,0.0,-999.0,97,-99.99,,,0.12,weatherlink.com 1.10,2013-08-10 11:11:00,
2013-08-10 07:26:00,75.1,74.0,30.07,East,80,0.0,-999.0,97,-99.99,,,0.12,weatherlink.com 1.10,2013-08-10 11:26:00,
2013-08-10 07:41:00,75.8,75.0,30.08,ENE,71,0.0,-999.0,97,-99.99,,,0.12,weatherlink.com 1.10,2013-08-10 11:41:00,
2013-08-10 07:56:00,76.5,76.0,30.08,ENE,67,1.0,-999.0,97,-99.99,,,0.12,weatherlink.com 1.10,2013-08-10 11:56:00,
2013-08-10 08:11:00,77.4,76.0,30.08,East,98,0.0,-999.0,96,-99.99,,,0.12,weatherlink.com 1.10,2013-08-10 12:11:00,
2013-08-10 08:26:00,78.4,77.0,30.09,East,93,1.0,-999.0,95,-99.99,,,0.00,weatherlink.com 1.10,2013-08-10 12:26:00,
2013-08-10 08:41:00,79.5,77.0,30.10,ESE,109,0.0,-999.0,93,-99.99,,,0.00,weatherlink.com 1.10,2013-08-10 12:41:00,
2013-08-10 08:56:00,80.9,78.0,30.10,East,93,1.0,-999.0,91,-99.99,,,0.00,weatherlink.com 1.10,2013-08-10 12:56:00,
2013-08-10 09:11:00,82.3,79.0,30.11,East,92,4.0,-999.0,89,-99.99,,,0.00,weatherlink.com 1.10,2013-08-10 13:11:00,
2013-08-10 09:26:00,83.5,79.0,30.11,East,96,5.0,-999.0,86,-99.99,,,0.00,weatherlink.com 1.10,2013-08-10 13:26:00,
2013-08-10 09:41:00,85.0,80.0,30.11,East,94,8.0,-999.0,84,-99.99,,,0.00,weatherlink.com 1.10,2013-08-10 13:41:00,
2013-08-10 09:56:00,85.6,80.0,30.11,East,100,0.0,-999.0,82,-99.99,,,0.00,weatherlink.com 1.10,2013-08-10 13:56:00,
2013-08-10 10:11:00,86.0,79.0,30.11,ESE,103,6.0,-999.0,80,-99.99,,,0.00,weatherlink.com 1.10,2013-08-10 14:11:00,
2013-08-10 10:26:00,87.0,79.0,30.11,SE,134,2.0,-999.0,77,-99.99,,,0.00,weatherlink.com 1.10,2013-08-10 14:26:00,
2013-08-10 10:41:00,88.1,79.0,30.12,ESE,110,1.0,-999.0,74,-99.99,,,0.00,weatherlink.com 1.10,2013-08-10 14:41:00,
2013-08-10 10:56:00,88.8,78.0,30.12,ESE,118,2.0,-999.0,71,-99.99,,,0.00,weatherlink.com 1.10,2013-08-10 14:56:00,
2013-08-10 11:11:00,89.4,79.0,30.12,East,97,0.0,-999.0,72,-99.99,,,0.00,weatherlink.com 1.10,2013-08-10 15:11:00,
2013-08-10 11:26:00,89.4,78.0,30.12,SSE,153,1.0,-999.0,69,-99.99,,,0.00,weatherlink.com 1.10,2013-08-10 15:26:00,
2013-08-10 11:41:00,89.5,79.0,30.12,SSE,159,5.0,-999.0,71,-99.99,,,0.00,weatherlink.com 1.10,2013-08-10 15:41:00,
2013-08-10 11:57:00,90.6,79.0,30.12,SE,142,4.0,-999.0,68,-99.99,,,0.00,weatherlink.com 1.10,2013-08-10 15:57:00,
2013-08-10 12:12:00,91.4,79.0,30.11,East,84,5.0,-999.0,68,-99.99,,,0.00,weatherlink.com 1.10,2013-08-10 16:12:00,
2013-08-10 12:27:00,91.4,78.0,30.11,ESE,116,4.0,-999.0,65,-99.99,,,0.00,weatherlink.com 1.10,2013-08-10 16:27:00,
2013-08-10 12:42:00,91.7,75.0,30.11,ESE,113,8.0,-999.0,59,-99.99,,,0.00,weatherlink.com 1.10,2013-08-10 16:42:00,
2013-08-10 12:57:00,92.7,76.0,30.10,SE,144,1.0,-999.0,59,-99.99,,,0.00,weatherlink.com 1.10,2013-08-10 16:57:00,
2013-08-10 13:12:00,93.3,76.0,30.10,ESE,115,0.0,-999.0,58,-99.99,,,0.00,weatherlink.com 1.10,2013-08-10 17:12:00,
2013-08-10 13:27:00,93.1,78.0,30.09,ENE,76,6.0,-999.0,62,-99.99,,,0.00,weatherlink.com 1.10,2013-08-10 17:27:00,
2013-08-10 13:42:00,93.4,80.0,30.09,East,98,7.0,-999.0,66,-99.99,,,0.00,weatherlink.com 1.10,2013-08-10 17:42:00,
2013-08-10 13:57:00,93.5,78.0,30.08,East,81,6.0,-999.0,60,-99.99,,,0.00,weatherlink.com 1.10,2013-08-10 17:57:00,
2013-08-10 14:12:00,93.8,76.0,30.07,East,96,5.0,-999.0,56,-99.99,,,0.00,weatherlink.com 1.10,2013-08-10 18:12:00,
2013-08-10 14:27:00,94.2,78.0,30.07,East,91,4.0,-999.0,59,-99.99,,,0.00,weatherlink.com 1.10,2013-08-10 18:27:00,
2013-08-10 14:42:00,95.2,78.0,30.07,East,87,3.0,-999.0,57,-99.99,,,0.00,weatherlink.com 1.10,2013-08-10 18:42:00,
2013-08-10 14:57:00,94.8,79.0,30.07,SE,132,7.0,-999.0,60,-99.99,,,0.00,weatherlink.com 1.10,2013-08-10 18:57:00,
2013-08-10 15:12:00,94.4,76.0,30.07,SSE,166,0.0,-999.0,55,-99.99,,,0.00,weatherlink.com 1.10,2013-08-10 19:12:00,
2013-08-10 15:27:00,95.8,78.0,30.07,East,97,6.0,-999.0,57,-99.99,,,0.00,weatherlink.com 1.10,2013-08-10 19:27:00,
2013-08-10 15:42:00,95.1,78.0,30.06,ESE,113,5.0,-999.0,57,-99.99,,,0.00,weatherlink.com 1.10,2013-08-10 19:42:00,
2013-08-10 15:57:00,94.6,76.0,30.05,ESE,117,7.0,-999.0,55,-99.99,,,0.00,weatherlink.com 1.10,2013-08-10 19:57:00,
2013-08-10 16:12:00,94.6,75.0,30.06,ESE,104,9.0,-999.0,54,-99.99,,,0.00,weatherlink.com 1.10,2013-08-10 20:12:00,
2013-08-10 16:27:00,94.3,77.0,30.05,ESE,111,4.0,-999.0,58,-99.99,,,0.00,weatherlink.com 1.10,2013-08-10 20:27:00,
2013-08-10 16:42:00,92.7,77.0,30.04,SE,136,0.0,-999.0,61,-99.99,,,0.00,weatherlink.com 1.10,2013-08-10 20:42:00,
2013-08-10 16:57:00,94.1,78.0,30.04,East,101,7.0,-999.0,59,-99.99,,,0.00,weatherlink.com 1.10,2013-08-10 20:57:00,
2013-08-10 17:12:00,95.5,78.0,30.04,East,97,12.0,-999.0,57,-99.99,,,0.00,weatherlink.com 1.10,2013-08-10 21:12:00,
2013-08-10 17:27:00,93.8,75.0,30.04,East,86,6.0,-999.0,55,-99.99,,,0.00,weatherlink.com 1.10,2013-08-10 21:27:00,
2013-08-10 17:42:00,93.6,75.0,30.04,East,83,2.0,-999.0,55,-99.99,,,0.00,weatherlink.com 1.10,2013-08-10 21:42:00,
2013-08-10 17:57:00,94.1,74.0,30.04,ESE,108,9.0,-999.0,52,-99.99,,,0.00,weatherlink.com 1.10,2013-08-10 21:57:00,
2013-08-10 18:12:00,93.6,73.0,30.04,SE,127,0.0,-999.0,51,-99.99,,,0.00,weatherlink.com 1.10,2013-08-10 22:12:00,
2013-08-10 18:27:00,93.5,73.0,30.04,SE,138,4.0,-999.0,52,-99.99,,,0.00,weatherlink.com 1.10,2013-08-10 22:27:00,
2013-08-10 18:43:00,92.0,73.0,30.04,East,98,5.0,-999.0,54,-99.99,,,0.00,weatherlink.com 1.10,2013-08-10 22:43:00,
2013-08-10 18:57:00,91.0,74.0,30.05,ENE,67,8.0,-999.0,57,-99.99,,,0.00,weatherlink.com 1.10,2013-08-10 22:57:00,
2013-08-10 19:12:00,90.0,73.0,30.05,ESE,103,1.0,-999.0,57,-99.99,,,0.00,weatherlink.com 1.10,2013-08-10 23:12:00,
2013-08-10 19:27:00,89.2,72.0,30.05,ESE,115,7.0,-999.0,57,-99.99,,,0.00,weatherlink.com 1.10,2013-08-10 23:27:00,
2013-08-10 19:42:00,88.3,72.0,30.06,East,92,0.0,-999.0,59,-99.99,,,0.00,weatherlink.com 1.10,2013-08-10 23:42:00,
2013-08-10 19:57:00,87.3,71.0,30.06,East,91,5.0,-999.0,59,-99.99,,,0.00,weatherlink.com 1.10,2013-08-10 23:57:00,
2013-08-10 20:12:00,86.5,71.0,30.06,ESE,113,2.0,-999.0,61,-99.99,,,0.00,weatherlink.com 1.10,2013-08-11 00:12:00,
2013-08-10 20:27:00,85.6,72.0,30.07,East,96,4.0,-999.0,63,-99.99,,,0.00,weatherlink.com 1.10,2013-08-11 00:27:00,
2013-08-10 20:42:00,84.8,72.0,30.07,ESE,103,4.0,-999.0,65,-99.99,,,0.00,weatherlink.com 1.10,2013-08-11 00:42:00,
2013-08-10 20:57:00,84.1,72.0,30.08,East,89,2.0,-999.0,67,-99.99,,,0.00,weatherlink.com 1.10,2013-08-11 00:57:00,
2013-08-10 21:12:00,83.6,73.0,30.08,ESE,108,2.0,-999.0,70,-99.99,,,0.00,weatherlink.com 1.10,2013-08-11 01:12:00,
2013-08-10 21:27:00,83.1,73.0,30.09,ESE,104,0.0,-999.0,71,-99.99,,,0.00,weatherlink.com 1.10,2013-08-11 01:27:00,
2013-08-10 21:42:00,82.8,73.0,30.09,ESE,108,0.0,-999.0,72,-99.99,,,0.00,weatherlink.com 1.10,2013-08-11 01:42:00,
2013-08-10 21:57:00,82.5,73.0,30.10,East,97,5.0,-999.0,73,-99.99,,,0.00,weatherlink.com 1.10,2013-08-11 01:57:00,
2013-08-10 22:12:00,82.3,74.0,30.10,ESE,107,0.0,-999.0,75,-99.99,,,0.00,weatherlink.com 1.10,2013-08-11 02:12:00,
2013-08-10 22:27:00,81.9,74.0,30.10,ESE,107,0.0,-999.0,76,-99.99,,,0.00,weatherlink.com 1.10,2013-08-11 02:27:00,
2013-08-10 22:42:00,81.4,74.0,30.11,ESE,107,0.0,-999.0,78,-99.99,,,0.00,weatherlink.com 1.10,2013-08-11 02:42:00,
2013-08-10 22:57:00,81.1,74.0,30.11,ESE,107,0.0,-999.0,79,-99.99,,,0.00,weatherlink.com 1.10,2013-08-11 02:57:00,
2013-08-10 23:27:00,80.4,75.0,30.12,ESE,105,0.0,-999.0,82,-99.99,,,0.00,weatherlink.com 1.10,2013-08-11 03:27:00,
2013-08-10 23:42:00,80.2,75.0,30.12,ESE,103,0.0,-999.0,83,-99.99,,,0.00,weatherlink.com 1.10,2013-08-11 03:42:00,
2013-08-10 23:57:00,79.8,75.0,30.12,ESE,103,0.0,-999.0,84,-99.99,,,0.00,weatherlink.com 1.10,2013-08-11 03:57:00,